Breedsville, MI (49027)

1:48 PM EDT on October 21, 2014 (GMT -0400)
South Haven | Change Station
CLOSE
Current Station
Airport
Location: South Haven,
Elevation: 666 ft
Nearby Weather Stations

Elev 666 ft 42.35 °N, 86.26 °W | Updated 13 minutes ago

Overcast
Overcast
50 °F
Feels Like 50 °F
N
6
Wind Variable Wind from NNE

Today
High -- | Low -- °F
--% Chance of Precip.
Yesterday
High -- | Low -- °F
Precip. -- in
8:04 AM 6:52 PM
Waning Crescent, 5% visible
Pressure 30.14 in
Visibility 10.0 miles
Clouds Mostly Cloudy 2400 ft
Overcast 3000 ft
Dew Point 41 °F
Humidity 71%
Rainfall 0.00 in
Snow Depth Not available.
UV 1 out of 12
Pollen 1.40 out of 12
PM2.5 Good
Flu Activity Sporadic
METAR KLWA 211735Z AUTO 03005KT 10SM BKN024 OVC030 10/05 A3014 RMK AO2 T01010051

More Conditions Fewer Conditions

Pressure 30.14 in
Visibility 10.0 miles
Clouds Mostly Cloudy 2400 ft
Overcast 3000 ft
Dew Point 41 °F
Humidity 71%
Rainfall 0.00 in
Snow Depth Not available.
UV 1 out of 12
Pollen 1.40 out of 12
PM2.5 Good
Flu Activity Sporadic
METAR KLWA 211735Z AUTO 03005KT 10SM BKN024 OVC030 10/05 A3014 RMK AO2 T01010051

More Conditions Fewer Conditions

10-Day Weather Forecast

Almanac

Astronomy

Oct. 21, 2014 Rise Set
Actual Time 8:04 AM EDT 6:52 PM EDT
Civil Twilight 7:35 AM EDT 7:21 PM EDT
Nautical Twilight 7:02 AM EDT 7:54 PM EDT
Astronomical Twilight 6:30 AM EDT 8:26 PM EDT
Moon 5:45 AM EDT 5:48 PM EDT
Length of Visible Light 11h 45m
Length of Day
10h 48m
Tomorrow will be 2m 42s shorter.
Waning Crescent, 5% of the Moon is Illuminated
Today
Waning Crescent
Oct 23
New
Oct 30
First Quarter
Nov 6
Full
Nov 14
Last Quarter

Today's Extremes

State Highs State Lows

Community

WunderPhotos

Upload Photos

1,763,733 photos uploaded!

Nearby

Air Quality

  Air Quality AQ Index Pollutant
Yesterday Good
PM2.5
Current Good
PM2.5
Tuesday Good
PM2.5
Wednesday Good
PM2.5
Thursday Good
PM2.5
Friday Good
PM2.5
Saturday Good
PM2.5

Snow Depth

Station Depth Elevation
No new snow has been reported.

Earthquake Activity

City Distance Mag. Time & Date
No recent earthquake activity has been reported nearby.
Minimum magnitude displayed is 2.5.

Coastal Water Temperatures

Place Temperature
Holland, MI 54.0 °F

Nearby Weather Stations